createdAt,value
2022-09-09T00:05:10.373Z,14.24
2022-09-09T00:20:11.108Z,14.07
2022-09-09T00:35:11.801Z,13.85
2022-09-09T00:50:13.665Z,13.82
2022-09-09T01:05:14.860Z,13.60
2022-09-09T01:20:16.047Z,13.26
2022-09-09T01:35:16.735Z,12.71
2022-09-09T01:50:17.431Z,12.34
2022-09-09T02:05:18.679Z,11.95
2022-09-09T02:20:19.940Z,11.57
2022-09-09T02:35:21.089Z,11.49
2022-09-09T02:50:22.244Z,11.36
2022-09-09T03:05:23.359Z,11.17
2022-09-09T03:20:24.521Z,11.03
2022-09-09T03:35:25.874Z,11.28
2022-09-09T03:50:26.543Z,10.96
2022-09-09T04:05:27.212Z,10.76
2022-09-09T04:20:28.386Z,10.76
2022-09-09T04:35:29.583Z,10.53
2022-09-09T04:50:30.749Z,10.52
2022-09-09T05:05:31.892Z,10.70
2022-09-09T05:20:32.995Z,10.88
2022-09-09T05:35:34.776Z,12.70
2022-09-09T05:50:35.741Z,13.92
2022-09-09T06:05:36.893Z,14.42
2022-09-09T06:20:37.999Z,15.39
2022-09-09T06:35:39.150Z,16.14
2022-09-09T06:50:40.130Z,17.41
2022-09-09T07:05:41.267Z,18.36
2022-09-09T07:20:42.374Z,18.70
2022-09-09T07:35:44.699Z,19.23
2022-09-09T07:50:46.067Z,19.81
2022-09-09T08:05:46.483Z,19.94
2022-09-09T08:20:48.659Z,20.69
2022-09-09T08:35:49.621Z,21.24
2022-09-09T08:50:50.299Z,21.40
2022-09-09T09:05:51.412Z,21.54
2022-09-09T09:20:53.635Z,21.24
2022-09-09T09:35:53.758Z,21.59
2022-09-09T09:50:53.790Z,22.07
2022-09-09T10:05:54.005Z,23.66
2022-09-09T10:20:55.013Z,24.46
2022-09-09T10:35:55.261Z,25.15
2022-09-09T10:51:00.929Z,25.32
2022-09-09T11:06:01.631Z,26.06
2022-09-09T11:21:02.597Z,26.54
2022-09-09T11:36:07.212Z,26.80
2022-09-09T11:51:11.036Z,26.69
2022-09-09T12:06:12.666Z,26.57
2022-09-09T12:21:12.784Z,25.60
2022-09-09T12:36:12.863Z,24.76
2022-09-09T12:51:12.980Z,25.54
2022-09-09T13:06:13.028Z,25.80
2022-09-09T13:21:13.101Z,24.88
2022-09-09T13:36:13.198Z,24.55
2022-09-09T13:51:13.539Z,24.10
2022-09-09T14:06:14.393Z,23.84
2022-09-09T14:21:14.506Z,23.04
2022-09-09T14:36:16.984Z,22.92
2022-09-09T14:51:18.579Z,22.98
2022-09-09T15:06:18.623Z,22.83
2022-09-09T15:21:19.230Z,23.15
2022-09-09T15:36:19.542Z,22.83
2022-09-09T15:51:41.326Z,22.40
2022-09-09T16:06:26.748Z,22.02
2022-09-09T16:21:28.314Z,21.43
2022-09-09T16:36:29.381Z,21.03
2022-09-09T16:51:29.469Z,20.41
2022-09-09T17:06:29.095Z,19.56
2022-09-09T17:21:30.159Z,19.14
2022-09-09T17:36:30.286Z,18.63
2022-09-09T17:51:30.882Z,18.35
2022-09-09T18:06:31.020Z,18.14
2022-09-09T18:21:31.571Z,17.79
2022-09-09T18:36:32.211Z,17.44
2022-09-09T18:51:33.362Z,17.03
2022-09-09T19:06:34.383Z,16.94
2022-09-09T19:21:34.462Z,17.03
2022-09-09T19:36:34.593Z,17.11
2022-09-09T19:51:34.747Z,17.25
2022-09-09T20:06:34.853Z,17.25
2022-09-09T20:21:35.198Z,16.82
2022-09-09T20:36:36.088Z,16.82
2022-09-09T20:51:36.255Z,16.91
2022-09-09T21:06:37.196Z,16.73
2022-09-09T21:21:37.453Z,16.35
2022-09-09T21:36:37.565Z,15.93
2022-09-09T21:51:37.690Z,15.32
2022-09-09T22:06:37.818Z,15.10
2022-09-09T22:21:37.922Z,15.03
2022-09-09T22:36:38.503Z,14.72
2022-09-09T22:51:39.091Z,14.29
2022-09-09T23:06:40.540Z,14.17
2022-09-09T23:21:40.805Z,14.00
2022-09-09T23:36:42.175Z,13.91
2022-09-09T23:51:43.073Z,13.99
